sensor_id;sensor_type;location;lat;lon;timestamp;P1;durP1;ratioP1;P2;durP2;ratioP2
48897;SDS011;34713;50.038;20.000;2023-02-13T00:01:55;47.50;;;28.20;;
48897;SDS011;34713;50.038;20.000;2023-02-13T00:04:22;47.40;;;26.50;;
48897;SDS011;34713;50.038;20.000;2023-02-13T00:06:49;56.80;;;29.50;;
48897;SDS011;34713;50.038;20.000;2023-02-13T00:09:16;56.70;;;30.30;;
48897;SDS011;34713;50.038;20.000;2023-02-13T00:11:43;53.00;;;30.60;;
48897;SDS011;34713;50.038;20.000;2023-02-13T00:14:09;58.40;;;31.20;;
48897;SDS011;34713;50.038;20.000;2023-02-13T00:16:36;56.60;;;31.40;;
48897;SDS011;34713;50.038;20.000;2023-02-13T00:19:03;56.30;;;32.10;;
48897;SDS011;34713;50.038;20.000;2023-02-13T00:21:29;55.20;;;32.80;;
48897;SDS011;34713;50.038;20.000;2023-02-13T00:23:56;57.60;;;31.90;;
48897;SDS011;34713;50.038;20.000;2023-02-13T00:26:23;60.30;;;32.50;;
48897;SDS011;34713;50.038;20.000;2023-02-13T00:28:49;58.90;;;32.50;;
48897;SDS011;34713;50.038;20.000;2023-02-13T00:31:17;57.90;;;32.40;;
48897;SDS011;34713;50.038;20.000;2023-02-13T00:33:45;58.20;;;32.90;;
48897;SDS011;34713;50.038;20.000;2023-02-13T00:36:16;56.40;;;31.20;;
48897;SDS011;34713;50.038;20.000;2023-02-13T00:38:45;59.60;;;33.50;;
48897;SDS011;34713;50.038;20.000;2023-02-13T00:41:12;56.80;;;31.90;;
48897;SDS011;34713;50.038;20.000;2023-02-13T00:43:39;53.10;;;30.40;;
48897;SDS011;34713;50.038;20.000;2023-02-13T00:46:06;54.60;;;31.80;;
48897;SDS011;34713;50.038;20.000;2023-02-13T00:48:33;61.10;;;33.40;;
48897;SDS011;34713;50.038;20.000;2023-02-13T00:51:00;63.70;;;35.80;;
48897;SDS011;34713;50.038;20.000;2023-02-13T00:53:28;60.20;;;35.20;;
48897;SDS011;34713;50.038;20.000;2023-02-13T00:55:55;60.10;;;35.70;;
48897;SDS011;34713;50.038;20.000;2023-02-13T00:58:21;63.60;;;36.00;;
48897;SDS011;34713;50.038;20.000;2023-02-13T01:00:48;66.60;;;35.40;;
48897;SDS011;34713;50.038;20.000;2023-02-13T01:03:17;65.20;;;36.70;;
48897;SDS011;34713;50.038;20.000;2023-02-13T01:05:44;64.80;;;36.40;;
48897;SDS011;34713;50.038;20.000;2023-02-13T01:08:12;67.00;;;36.30;;
48897;SDS011;34713;50.038;20.000;2023-02-13T01:10:40;68.00;;;37.40;;
48897;SDS011;34713;50.038;20.000;2023-02-13T01:13:07;64.10;;;35.80;;
48897;SDS011;34713;50.038;20.000;2023-02-13T01:15:34;65.00;;;36.50;;
48897;SDS011;34713;50.038;20.000;2023-02-13T01:18:02;62.80;;;37.20;;
48897;SDS011;34713;50.038;20.000;2023-02-13T01:20:29;61.70;;;36.50;;
48897;SDS011;34713;50.038;20.000;2023-02-13T01:22:56;62.50;;;35.40;;
48897;SDS011;34713;50.038;20.000;2023-02-13T01:25:23;65.20;;;39.40;;
48897;SDS011;34713;50.038;20.000;2023-02-13T01:27:50;65.20;;;36.90;;
48897;SDS011;34713;50.038;20.000;2023-02-13T01:30:17;71.70;;;39.60;;
48897;SDS011;34713;50.038;20.000;2023-02-13T01:32:45;70.70;;;37.90;;
48897;SDS011;34713;50.038;20.000;2023-02-13T01:35:13;71.60;;;39.30;;
48897;SDS011;34713;50.038;20.000;2023-02-13T01:37:40;68.90;;;38.10;;
48897;SDS011;34713;50.038;20.000;2023-02-13T01:40:09;68.50;;;38.70;;
48897;SDS011;34713;50.038;20.000;2023-02-13T01:42:37;67.70;;;37.90;;
48897;SDS011;34713;50.038;20.000;2023-02-13T01:45:05;65.30;;;37.30;;
48897;SDS011;34713;50.038;20.000;2023-02-13T01:48:06;70.30;;;40.70;;
48897;SDS011;34713;50.038;20.000;2023-02-13T01:50:38;73.00;;;39.80;;
48897;SDS011;34713;50.038;20.000;2023-02-13T01:53:12;67.70;;;38.30;;
48897;SDS011;34713;50.038;20.000;2023-02-13T01:55:44;72.50;;;37.60;;
48897;SDS011;34713;50.038;20.000;2023-02-13T01:58:15;69.30;;;39.00;;
48897;SDS011;34713;50.038;20.000;2023-02-13T02:00:45;72.10;;;38.00;;
48897;SDS011;34713;50.038;20.000;2023-02-13T02:03:20;73.40;;;40.60;;
48897;SDS011;34713;50.038;20.000;2023-02-13T02:05:49;77.30;;;42.70;;
48897;SDS011;34713;50.038;20.000;2023-02-13T02:08:16;77.50;;;42.90;;
48897;SDS011;34713;50.038;20.000;2023-02-13T02:10:44;77.30;;;43.10;;
48897;SDS011;34713;50.038;20.000;2023-02-13T02:13:18;79.00;;;43.30;;
48897;SDS011;34713;50.038;20.000;2023-02-13T02:15:46;77.40;;;43.50;;
48897;SDS011;34713;50.038;20.000;2023-02-13T02:18:14;86.50;;;47.00;;
48897;SDS011;34713;50.038;20.000;2023-02-13T02:29:13;89.80;;;46.50;;
48897;SDS011;34713;50.038;20.000;2023-02-13T02:37:20;78.60;;;44.40;;
48897;SDS011;34713;50.038;20.000;2023-02-13T02:46:14;77.70;;;43.30;;
48897;SDS011;34713;50.038;20.000;2023-02-13T02:48:48;76.40;;;44.90;;
48897;SDS011;34713;50.038;20.000;2023-02-13T02:57:12;84.40;;;45.80;;
48897;SDS011;34713;50.038;20.000;2023-02-13T02:59:41;79.30;;;45.70;;
48897;SDS011;34713;50.038;20.000;2023-02-13T03:02:28;86.40;;;45.70;;
48897;SDS011;34713;50.038;20.000;2023-02-13T03:05:19;90.10;;;47.40;;
48897;SDS011;34713;50.038;20.000;2023-02-13T03:08:06;84.90;;;46.50;;
48897;SDS011;34713;50.038;20.000;2023-02-13T03:10:34;87.10;;;46.50;;
48897;SDS011;34713;50.038;20.000;2023-02-13T03:16:14;84.30;;;46.60;;
48897;SDS011;34713;50.038;20.000;2023-02-13T03:19:01;88.60;;;46.90;;
48897;SDS011;34713;50.038;20.000;2023-02-13T03:21:48;84.20;;;45.60;;
48897;SDS011;34713;50.038;20.000;2023-02-13T03:27:44;85.30;;;46.10;;
48897;SDS011;34713;50.038;20.000;2023-02-13T03:41:14;91.10;;;46.10;;
48897;SDS011;34713;50.038;20.000;2023-02-13T03:46:41;85.60;;;41.40;;
48897;SDS011;34713;50.038;20.000;2023-02-13T03:49:20;81.90;;;43.40;;
48897;SDS011;34713;50.038;20.000;2023-02-13T03:52:17;78.00;;;40.70;;
48897;SDS011;34713;50.038;20.000;2023-02-13T03:54:53;78.10;;;41.00;;
48897;SDS011;34713;50.038;20.000;2023-02-13T03:57:41;83.60;;;39.90;;
48897;SDS011;34713;50.038;20.000;2023-02-13T04:00:31;74.10;;;38.20;;
48897;SDS011;34713;50.038;20.000;2023-02-13T04:03:15;79.50;;;41.20;;
48897;SDS011;34713;50.038;20.000;2023-02-13T04:05:49;81.00;;;39.60;;
48897;SDS011;34713;50.038;20.000;2023-02-13T04:08:19;68.60;;;37.90;;
48897;SDS011;34713;50.038;20.000;2023-02-13T04:10:49;76.30;;;39.00;;
48897;SDS011;34713;50.038;20.000;2023-02-13T04:16:44;74.80;;;36.70;;
48897;SDS011;34713;50.038;20.000;2023-02-13T04:19:16;72.90;;;36.10;;
48897;SDS011;34713;50.038;20.000;2023-02-13T04:21:47;73.40;;;37.40;;
48897;SDS011;34713;50.038;20.000;2023-02-13T04:24:14;73.50;;;37.80;;
48897;SDS011;34713;50.038;20.000;2023-02-13T04:26:41;75.30;;;37.90;;
48897;SDS011;34713;50.038;20.000;2023-02-13T04:29:08;77.80;;;38.20;;
48897;SDS011;34713;50.038;20.000;2023-02-13T04:31:35;72.90;;;39.00;;
48897;SDS011;34713;50.038;20.000;2023-02-13T04:34:02;73.60;;;37.20;;
48897;SDS011;34713;50.038;20.000;2023-02-13T04:36:29;68.60;;;36.90;;
48897;SDS011;34713;50.038;20.000;2023-02-13T04:38:56;68.90;;;36.50;;
48897;SDS011;34713;50.038;20.000;2023-02-13T04:41:23;70.40;;;38.60;;
48897;SDS011;34713;50.038;20.000;2023-02-13T04:43:49;74.90;;;38.30;;
48897;SDS011;34713;50.038;20.000;2023-02-13T04:46:17;61.70;;;35.00;;
48897;SDS011;34713;50.038;20.000;2023-02-13T04:48:44;65.30;;;36.70;;
48897;SDS011;34713;50.038;20.000;2023-02-13T04:51:11;70.70;;;35.90;;
48897;SDS011;34713;50.038;20.000;2023-02-13T04:53:37;63.60;;;35.00;;
48897;SDS011;34713;50.038;20.000;2023-02-13T04:56:04;64.40;;;35.40;;
48897;SDS011;34713;50.038;20.000;2023-02-13T04:58:31;69.30;;;36.00;;
48897;SDS011;34713;50.038;20.000;2023-02-13T05:00:58;62.40;;;36.20;;
48897;SDS011;34713;50.038;20.000;2023-02-13T05:03:24;65.20;;;36.60;;
48897;SDS011;34713;50.038;20.000;2023-02-13T05:05:51;62.70;;;35.40;;
48897;SDS011;34713;50.038;20.000;2023-02-13T05:08:18;64.90;;;35.90;;
48897;SDS011;34713;50.038;20.000;2023-02-13T05:10:45;64.00;;;35.20;;
48897;SDS011;34713;50.038;20.000;2023-02-13T05:13:12;64.00;;;35.50;;
48897;SDS011;34713;50.038;20.000;2023-02-13T05:15:39;63.60;;;34.50;;
48897;SDS011;34713;50.038;20.000;2023-02-13T05:18:06;57.90;;;35.10;;
48897;SDS011;34713;50.038;20.000;2023-02-13T05:20:32;57.40;;;31.60;;
48897;SDS011;34713;50.038;20.000;2023-02-13T05:22:59;54.50;;;33.00;;
48897;SDS011;34713;50.038;20.000;2023-02-13T05:25:44;52.00;;;31.00;;
48897;SDS011;34713;50.038;20.000;2023-02-13T05:28:11;55.80;;;33.10;;
48897;SDS011;34713;50.038;20.000;2023-02-13T05:30:56;58.60;;;32.80;;
48897;SDS011;34713;50.038;20.000;2023-02-13T05:33:23;54.90;;;32.10;;
48897;SDS011;34713;50.038;20.000;2023-02-13T05:35:49;53.50;;;32.50;;
48897;SDS011;34713;50.038;20.000;2023-02-13T05:38:16;53.00;;;31.80;;
48897;SDS011;34713;50.038;20.000;2023-02-13T05:40:43;56.70;;;32.40;;
48897;SDS011;34713;50.038;20.000;2023-02-13T05:43:10;53.80;;;32.30;;
48897;SDS011;34713;50.038;20.000;2023-02-13T05:45:36;61.20;;;33.50;;
48897;SDS011;34713;50.038;20.000;2023-02-13T05:48:03;52.60;;;31.80;;
48897;SDS011;34713;50.038;20.000;2023-02-13T05:50:30;55.10;;;31.60;;
48897;SDS011;34713;50.038;20.000;2023-02-13T05:52:56;51.30;;;32.10;;
48897;SDS011;34713;50.038;20.000;2023-02-13T05:55:23;54.00;;;32.30;;
48897;SDS011;34713;50.038;20.000;2023-02-13T05:57:54;55.00;;;32.00;;
48897;SDS011;34713;50.038;20.000;2023-02-13T06:00:21;54.70;;;31.20;;
48897;SDS011;34713;50.038;20.000;2023-02-13T06:02:48;53.70;;;30.50;;
48897;SDS011;34713;50.038;20.000;2023-02-13T06:05:15;48.70;;;29.30;;
48897;SDS011;34713;50.038;20.000;2023-02-13T06:07:41;52.20;;;31.40;;
48897;SDS011;34713;50.038;20.000;2023-02-13T06:10:08;56.00;;;31.80;;
48897;SDS011;34713;50.038;20.000;2023-02-13T06:12:35;52.30;;;30.60;;
48897;SDS011;34713;50.038;20.000;2023-02-13T06:15:02;54.40;;;30.00;;
48897;SDS011;34713;50.038;20.000;2023-02-13T06:17:28;55.50;;;31.40;;
48897;SDS011;34713;50.038;20.000;2023-02-13T06:19:55;61.10;;;33.20;;
48897;SDS011;34713;50.038;20.000;2023-02-13T06:22:22;51.00;;;31.00;;
48897;SDS011;34713;50.038;20.000;2023-02-13T06:24:48;51.30;;;32.30;;
48897;SDS011;34713;50.038;20.000;2023-02-13T06:27:15;58.60;;;31.30;;
48897;SDS011;34713;50.038;20.000;2023-02-13T06:29:42;52.20;;;29.50;;
48897;SDS011;34713;50.038;20.000;2023-02-13T06:32:08;51.80;;;29.10;;
48897;SDS011;34713;50.038;20.000;2023-02-13T06:34:35;48.00;;;28.10;;
48897;SDS011;34713;50.038;20.000;2023-02-13T06:37:02;47.00;;;29.00;;
48897;SDS011;34713;50.038;20.000;2023-02-13T06:39:28;51.60;;;30.10;;
48897;SDS011;34713;50.038;20.000;2023-02-13T06:41:55;51.00;;;29.50;;
48897;SDS011;34713;50.038;20.000;2023-02-13T06:44:22;45.50;;;27.60;;
48897;SDS011;34713;50.038;20.000;2023-02-13T06:46:48;50.20;;;30.40;;
48897;SDS011;34713;50.038;20.000;2023-02-13T06:49:15;47.30;;;28.50;;
48897;SDS011;34713;50.038;20.000;2023-02-13T06:51:41;53.50;;;29.80;;
48897;SDS011;34713;50.038;20.000;2023-02-13T06:54:08;50.00;;;29.40;;
48897;SDS011;34713;50.038;20.000;2023-02-13T06:56:35;50.60;;;28.60;;
48897;SDS011;34713;50.038;20.000;2023-02-13T06:59:01;56.60;;;31.60;;
48897;SDS011;34713;50.038;20.000;2023-02-13T07:01:28;53.70;;;31.30;;
48897;SDS011;34713;50.038;20.000;2023-02-13T07:03:55;52.60;;;30.50;;
48897;SDS011;34713;50.038;20.000;2023-02-13T07:06:21;51.70;;;31.00;;
48897;SDS011;34713;50.038;20.000;2023-02-13T07:08:48;59.30;;;33.40;;
48897;SDS011;34713;50.038;20.000;2023-02-13T07:11:21;57.50;;;31.10;;
48897;SDS011;34713;50.038;20.000;2023-02-13T07:13:49;53.20;;;30.80;;
48897;SDS011;34713;50.038;20.000;2023-02-13T07:16:16;58.20;;;31.80;;
48897;SDS011;34713;50.038;20.000;2023-02-13T07:18:43;54.40;;;29.20;;
48897;SDS011;34713;50.038;20.000;2023-02-13T07:21:09;59.50;;;31.90;;
48897;SDS011;34713;50.038;20.000;2023-02-13T07:23:36;56.50;;;30.30;;
48897;SDS011;34713;50.038;20.000;2023-02-13T07:26:03;56.20;;;30.60;;
48897;SDS011;34713;50.038;20.000;2023-02-13T07:28:30;55.70;;;29.90;;
48897;SDS011;34713;50.038;20.000;2023-02-13T07:30:56;51.80;;;28.90;;
48897;SDS011;34713;50.038;20.000;2023-02-13T07:33:23;55.70;;;30.90;;
48897;SDS011;34713;50.038;20.000;2023-02-13T07:35:50;51.00;;;28.80;;
48897;SDS011;34713;50.038;20.000;2023-02-13T07:38:18;53.40;;;31.10;;
48897;SDS011;34713;50.038;20.000;2023-02-13T07:40:45;55.10;;;31.00;;
48897;SDS011;34713;50.038;20.000;2023-02-13T07:43:12;53.00;;;30.70;;
48897;SDS011;34713;50.038;20.000;2023-02-13T07:45:39;54.30;;;28.10;;
48897;SDS011;34713;50.038;20.000;2023-02-13T07:48:05;55.80;;;31.10;;
48897;SDS011;34713;50.038;20.000;2023-02-13T07:50:32;56.40;;;30.50;;
48897;SDS011;34713;50.038;20.000;2023-02-13T07:52:59;55.40;;;30.60;;
48897;SDS011;34713;50.038;20.000;2023-02-13T07:55:27;58.70;;;32.20;;
48897;SDS011;34713;50.038;20.000;2023-02-13T07:57:55;60.90;;;30.60;;
48897;SDS011;34713;50.038;20.000;2023-02-13T08:00:21;57.20;;;30.20;;
48897;SDS011;34713;50.038;20.000;2023-02-13T08:02:48;63.30;;;30.80;;
48897;SDS011;34713;50.038;20.000;2023-02-13T08:05:15;56.60;;;30.40;;
48897;SDS011;34713;50.038;20.000;2023-02-13T08:07:42;53.20;;;29.90;;
48897;SDS011;34713;50.038;20.000;2023-02-13T08:10:10;55.00;;;30.60;;
48897;SDS011;34713;50.038;20.000;2023-02-13T08:12:56;57.10;;;31.20;;
48897;SDS011;34713;50.038;20.000;2023-02-13T08:15:23;53.10;;;29.60;;
48897;SDS011;34713;50.038;20.000;2023-02-13T08:17:51;55.30;;;29.80;;
48897;SDS011;34713;50.038;20.000;2023-02-13T08:20:17;51.90;;;29.40;;
48897;SDS011;34713;50.038;20.000;2023-02-13T08:22:44;48.80;;;27.50;;
48897;SDS011;34713;50.038;20.000;2023-02-13T08:25:11;47.50;;;26.30;;
48897;SDS011;34713;50.038;20.000;2023-02-13T08:27:38;48.10;;;27.80;;
48897;SDS011;34713;50.038;20.000;2023-02-13T08:30:05;50.00;;;27.50;;
48897;SDS011;34713;50.038;20.000;2023-02-13T08:32:32;45.70;;;26.00;;
48897;SDS011;34713;50.038;20.000;2023-02-13T08:34:59;42.70;;;25.70;;
48897;SDS011;34713;50.038;20.000;2023-02-13T08:37:25;43.20;;;25.60;;
48897;SDS011;34713;50.038;20.000;2023-02-13T08:39:52;44.30;;;26.10;;
48897;SDS011;34713;50.038;20.000;2023-02-13T08:42:19;45.20;;;26.40;;
48897;SDS011;34713;50.038;20.000;2023-02-13T08:44:45;44.70;;;26.90;;
48897;SDS011;34713;50.038;20.000;2023-02-13T08:47:12;43.30;;;24.60;;
48897;SDS011;34713;50.038;20.000;2023-02-13T08:49:39;38.30;;;23.70;;
48897;SDS011;34713;50.038;20.000;2023-02-13T08:52:05;40.50;;;24.10;;
48897;SDS011;34713;50.038;20.000;2023-02-13T08:54:35;40.00;;;24.80;;
48897;SDS011;34713;50.038;20.000;2023-02-13T08:57:02;40.00;;;24.50;;
48897;SDS011;34713;50.038;20.000;2023-02-13T08:59:28;37.10;;;23.50;;
48897;SDS011;34713;50.038;20.000;2023-02-13T09:01:55;37.00;;;22.70;;
48897;SDS011;34713;50.038;20.000;2023-02-13T09:04:23;39.20;;;22.90;;
48897;SDS011;34713;50.038;20.000;2023-02-13T09:06:49;41.20;;;24.30;;
48897;SDS011;34713;50.038;20.000;2023-02-13T09:09:16;40.80;;;23.70;;
48897;SDS011;34713;50.038;20.000;2023-02-13T09:11:43;38.10;;;24.30;;
48897;SDS011;34713;50.038;20.000;2023-02-13T09:14:09;37.90;;;23.90;;
48897;SDS011;34713;50.038;20.000;2023-02-13T09:16:36;39.10;;;23.40;;
48897;SDS011;34713;50.038;20.000;2023-02-13T09:19:03;42.00;;;23.60;;
48897;SDS011;34713;50.038;20.000;2023-02-13T09:21:29;35.80;;;23.00;;
48897;SDS011;34713;50.038;20.000;2023-02-13T09:23:56;37.50;;;22.30;;
48897;SDS011;34713;50.038;20.000;2023-02-13T09:26:23;38.30;;;21.90;;
48897;SDS011;34713;50.038;20.000;2023-02-13T09:28:49;37.60;;;22.70;;
48897;SDS011;34713;50.038;20.000;2023-02-13T09:31:17;36.90;;;22.10;;
48897;SDS011;34713;50.038;20.000;2023-02-13T09:33:45;38.80;;;22.70;;
48897;SDS011;34713;50.038;20.000;2023-02-13T09:36:14;34.90;;;22.30;;
48897;SDS011;34713;50.038;20.000;2023-02-13T09:38:45;31.70;;;20.20;;
48897;SDS011;34713;50.038;20.000;2023-02-13T09:41:28;38.70;;;22.00;;
48897;SDS011;34713;50.038;20.000;2023-02-13T09:44:05;37.20;;;22.70;;
48897;SDS011;34713;50.038;20.000;2023-02-13T09:46:39;35.90;;;23.20;;
48897;SDS011;34713;50.038;20.000;2023-02-13T09:49:07;35.30;;;21.50;;
48897;SDS011;34713;50.038;20.000;2023-02-13T09:51:40;33.90;;;20.40;;
48897;SDS011;34713;50.038;20.000;2023-02-13T09:54:11;36.20;;;21.20;;
48897;SDS011;34713;50.038;20.000;2023-02-13T09:56:45;37.00;;;22.60;;
48897;SDS011;34713;50.038;20.000;2023-02-13T10:02:10;33.00;;;21.70;;
48897;SDS011;34713;50.038;20.000;2023-02-13T10:04:51;37.90;;;21.60;;
48897;SDS011;34713;50.038;20.000;2023-02-13T10:12:55;37.10;;;22.50;;
48897;SDS011;34713;50.038;20.000;2023-02-13T10:18:11;36.50;;;22.10;;
48897;SDS011;34713;50.038;20.000;2023-02-13T10:20:50;37.20;;;21.90;;
48897;SDS011;34713;50.038;20.000;2023-02-13T10:23:32;43.10;;;21.50;;
48897;SDS011;34713;50.038;20.000;2023-02-13T10:29:17;37.00;;;22.50;;
48897;SDS011;34713;50.038;20.000;2023-02-13T10:32:08;34.80;;;20.50;;
48897;SDS011;34713;50.038;20.000;2023-02-13T10:34:37;31.70;;;20.50;;
48897;SDS011;34713;50.038;20.000;2023-02-13T10:37:10;38.70;;;21.00;;
48897;SDS011;34713;50.038;20.000;2023-02-13T10:39:40;32.80;;;19.30;;
48897;SDS011;34713;50.038;20.000;2023-02-13T10:53:23;32.90;;;17.70;;
48897;SDS011;34713;50.038;20.000;2023-02-13T11:01:40;25.30;;;16.70;;
48897;SDS011;34713;50.038;20.000;2023-02-13T11:04:13;25.80;;;15.60;;
48897;SDS011;34713;50.038;20.000;2023-02-13T11:06:56;24.60;;;15.30;;
48897;SDS011;34713;50.038;20.000;2023-02-13T11:09:25;24.60;;;15.70;;
48897;SDS011;34713;50.038;20.000;2023-02-13T11:11:52;24.90;;;14.70;;
48897;SDS011;34713;50.038;20.000;2023-02-13T11:14:20;23.50;;;14.70;;
48897;SDS011;34713;50.038;20.000;2023-02-13T11:16:56;20.50;;;13.50;;
48897;SDS011;34713;50.038;20.000;2023-02-13T11:22:14;27.20;;;14.50;;
48897;SDS011;34713;50.038;20.000;2023-02-13T11:24:48;23.90;;;14.10;;
48897;SDS011;34713;50.038;20.000;2023-02-13T11:27:21;20.10;;;12.40;;
48897;SDS011;34713;50.038;20.000;2023-02-13T11:29:56;23.70;;;12.50;;
48897;SDS011;34713;50.038;20.000;2023-02-13T11:32:26;20.20;;;12.80;;
48897;SDS011;34713;50.038;20.000;2023-02-13T11:34:54;20.00;;;11.80;;
48897;SDS011;34713;50.038;20.000;2023-02-13T11:39:49;15.80;;;11.10;;
48897;SDS011;34713;50.038;20.000;2023-02-13T11:42:29;20.80;;;11.30;;
48897;SDS011;34713;50.038;20.000;2023-02-13T11:44:59;18.60;;;10.90;;
48897;SDS011;34713;50.038;20.000;2023-02-13T11:47:32;16.20;;;8.90;;
48897;SDS011;34713;50.038;20.000;2023-02-13T11:50:04;16.20;;;8.50;;
48897;SDS011;34713;50.038;20.000;2023-02-13T11:52:33;17.20;;;8.40;;
48897;SDS011;34713;50.038;20.000;2023-02-13T11:55:02;12.90;;;7.80;;
48897;SDS011;34713;50.038;20.000;2023-02-13T11:57:35;17.90;;;9.10;;
48897;SDS011;34713;50.038;20.000;2023-02-13T12:02:52;12.20;;;8.00;;
48897;SDS011;34713;50.038;20.000;2023-02-13T12:05:20;14.60;;;8.90;;
48897;SDS011;34713;50.038;20.000;2023-02-13T12:07:52;16.20;;;8.70;;
48897;SDS011;34713;50.038;20.000;2023-02-13T12:10:22;14.20;;;8.10;;
48897;SDS011;34713;50.038;20.000;2023-02-13T12:12:52;12.90;;;7.80;;
48897;SDS011;34713;50.038;20.000;2023-02-13T12:15:32;14.50;;;7.70;;
48897;SDS011;34713;50.038;20.000;2023-02-13T12:21:21;11.50;;;7.30;;
48897;SDS011;34713;50.038;20.000;2023-02-13T12:34:01;11.70;;;6.70;;
48897;SDS011;34713;50.038;20.000;2023-02-13T12:39:38;12.00;;;6.50;;
48897;SDS011;34713;50.038;20.000;2023-02-13T12:44:49;10.80;;;6.10;;
48897;SDS011;34713;50.038;20.000;2023-02-13T12:47:22;11.80;;;6.50;;
48897;SDS011;34713;50.038;20.000;2023-02-13T12:58:50;12.10;;;6.50;;
48897;SDS011;34713;50.038;20.000;2023-02-13T13:04:05;13.00;;;5.90;;
48897;SDS011;34713;50.038;20.000;2023-02-13T13:09:24;10.40;;;5.50;;
48897;SDS011;34713;50.038;20.000;2023-02-13T13:22:30;7.30;;;4.90;;
48897;SDS011;34713;50.038;20.000;2023-02-13T13:25:02;7.90;;;4.90;;
48897;SDS011;34713;50.038;20.000;2023-02-13T13:27:42;8.30;;;5.30;;
48897;SDS011;34713;50.038;20.000;2023-02-13T13:30:26;9.90;;;5.50;;
48897;SDS011;34713;50.038;20.000;2023-02-13T13:35:56;9.90;;;5.20;;
48897;SDS011;34713;50.038;20.000;2023-02-13T13:38:28;9.80;;;5.80;;
48897;SDS011;34713;50.038;20.000;2023-02-13T13:41:29;9.60;;;5.90;;
48897;SDS011;34713;50.038;20.000;2023-02-13T13:46:43;12.10;;;6.70;;
48897;SDS011;34713;50.038;20.000;2023-02-13T13:49:17;14.00;;;7.10;;
48897;SDS011;34713;50.038;20.000;2023-02-13T13:51:46;12.60;;;6.70;;
48897;SDS011;34713;50.038;20.000;2023-02-13T14:02:35;13.10;;;8.10;;
48897;SDS011;34713;50.038;20.000;2023-02-13T14:07:41;11.20;;;7.10;;
48897;SDS011;34713;50.038;20.000;2023-02-13T14:12:47;12.60;;;7.50;;
48897;SDS011;34713;50.038;20.000;2023-02-13T14:20:49;16.60;;;8.50;;
48897;SDS011;34713;50.038;20.000;2023-02-13T14:28:58;13.50;;;8.40;;
48897;SDS011;34713;50.038;20.000;2023-02-13T14:31:36;15.40;;;8.30;;
48897;SDS011;34713;50.038;20.000;2023-02-13T14:36:37;16.50;;;8.90;;
48897;SDS011;34713;50.038;20.000;2023-02-13T14:39:07;16.30;;;9.60;;
48897;SDS011;34713;50.038;20.000;2023-02-13T14:42:01;17.30;;;8.90;;
48897;SDS011;34713;50.038;20.000;2023-02-13T14:47:27;14.10;;;8.90;;
48897;SDS011;34713;50.038;20.000;2023-02-13T14:49:57;16.80;;;8.90;;
48897;SDS011;34713;50.038;20.000;2023-02-13T14:52:25;14.10;;;9.00;;
48897;SDS011;34713;50.038;20.000;2023-02-13T14:57:29;14.70;;;9.40;;
48897;SDS011;34713;50.038;20.000;2023-02-13T15:00:22;16.30;;;9.20;;
48897;SDS011;34713;50.038;20.000;2023-02-13T15:02:53;12.80;;;8.60;;
48897;SDS011;34713;50.038;20.000;2023-02-13T15:05:21;15.60;;;8.70;;
48897;SDS011;34713;50.038;20.000;2023-02-13T15:08:02;13.70;;;8.70;;
48897;SDS011;34713;50.038;20.000;2023-02-13T15:13:21;16.40;;;9.60;;
48897;SDS011;34713;50.038;20.000;2023-02-13T15:15:51;14.70;;;9.00;;
48897;SDS011;34713;50.038;20.000;2023-02-13T15:18:26;15.70;;;9.30;;
48897;SDS011;34713;50.038;20.000;2023-02-13T15:20:55;14.10;;;8.50;;
48897;SDS011;34713;50.038;20.000;2023-02-13T15:23:25;13.90;;;9.20;;
48897;SDS011;34713;50.038;20.000;2023-02-13T15:25:55;15.40;;;9.00;;
48897;SDS011;34713;50.038;20.000;2023-02-13T15:28:30;16.10;;;9.80;;
48897;SDS011;34713;50.038;20.000;2023-02-13T15:31:01;14.90;;;9.90;;
48897;SDS011;34713;50.038;20.000;2023-02-13T15:33:44;14.50;;;9.60;;
48897;SDS011;34713;50.038;20.000;2023-02-13T15:36:15;14.70;;;9.60;;
48897;SDS011;34713;50.038;20.000;2023-02-13T15:38:44;17.10;;;9.70;;
48897;SDS011;34713;50.038;20.000;2023-02-13T15:41:17;15.00;;;9.90;;
48897;SDS011;34713;50.038;20.000;2023-02-13T15:43:47;17.60;;;10.40;;
48897;SDS011;34713;50.038;20.000;2023-02-13T15:48:46;13.70;;;9.50;;
48897;SDS011;34713;50.038;20.000;2023-02-13T15:51:23;15.90;;;10.10;;
48897;SDS011;34713;50.038;20.000;2023-02-13T15:53:52;12.60;;;8.30;;
48897;SDS011;34713;50.038;20.000;2023-02-13T15:56:20;14.70;;;8.40;;
48897;SDS011;34713;50.038;20.000;2023-02-13T15:58:48;12.90;;;8.90;;
48897;SDS011;34713;50.038;20.000;2023-02-13T16:01:15;14.00;;;8.70;;
48897;SDS011;34713;50.038;20.000;2023-02-13T16:03:43;16.10;;;9.20;;
48897;SDS011;34713;50.038;20.000;2023-02-13T16:06:13;14.10;;;9.00;;
48897;SDS011;34713;50.038;20.000;2023-02-13T16:08:50;13.90;;;9.10;;
48897;SDS011;34713;50.038;20.000;2023-02-13T16:11:54;13.00;;;9.20;;
48897;SDS011;34713;50.038;20.000;2023-02-13T16:14:14;15.70;;;9.80;;
48897;SDS011;34713;50.038;20.000;2023-02-13T16:16:45;15.00;;;10.50;;
48897;SDS011;34713;50.038;20.000;2023-02-13T16:19:29;20.20;;;11.00;;
48897;SDS011;34713;50.038;20.000;2023-02-13T16:24:51;18.30;;;10.30;;
48897;SDS011;34713;50.038;20.000;2023-02-13T16:27:20;15.60;;;9.70;;
48897;SDS011;34713;50.038;20.000;2023-02-13T16:30:02;12.40;;;8.40;;
48897;SDS011;34713;50.038;20.000;2023-02-13T16:32:32;12.30;;;8.00;;
48897;SDS011;34713;50.038;20.000;2023-02-13T16:38:00;10.40;;;7.40;;
48897;SDS011;34713;50.038;20.000;2023-02-13T16:48:45;7.90;;;6.10;;
48897;SDS011;34713;50.038;20.000;2023-02-13T16:51:23;9.70;;;6.00;;
48897;SDS011;34713;50.038;20.000;2023-02-13T16:59:33;9.10;;;6.00;;
48897;SDS011;34713;50.038;20.000;2023-02-13T17:04:48;9.30;;;5.60;;
48897;SDS011;34713;50.038;20.000;2023-02-13T17:07:23;8.10;;;5.00;;
48897;SDS011;34713;50.038;20.000;2023-02-13T17:09:53;10.20;;;5.50;;
48897;SDS011;34713;50.038;20.000;2023-02-13T17:12:21;8.50;;;5.50;;
48897;SDS011;34713;50.038;20.000;2023-02-13T17:14:48;7.40;;;5.20;;
48897;SDS011;34713;50.038;20.000;2023-02-13T17:17:16;9.30;;;5.60;;
48897;SDS011;34713;50.038;20.000;2023-02-13T17:19:44;7.20;;;5.10;;
48897;SDS011;34713;50.038;20.000;2023-02-13T17:22:18;9.70;;;4.70;;
48897;SDS011;34713;50.038;20.000;2023-02-13T17:25:07;8.30;;;5.00;;
48897;SDS011;34713;50.038;20.000;2023-02-13T17:27:36;6.50;;;4.70;;
48897;SDS011;34713;50.038;20.000;2023-02-13T17:30:03;9.30;;;5.00;;
48897;SDS011;34713;50.038;20.000;2023-02-13T17:32:30;7.60;;;5.20;;
48897;SDS011;34713;50.038;20.000;2023-02-13T17:34:57;9.10;;;5.60;;
48897;SDS011;34713;50.038;20.000;2023-02-13T17:37:25;11.00;;;6.30;;
48897;SDS011;34713;50.038;20.000;2023-02-13T17:39:53;12.00;;;6.70;;
48897;SDS011;34713;50.038;20.000;2023-02-13T17:42:24;12.10;;;7.50;;
48897;SDS011;34713;50.038;20.000;2023-02-13T17:44:53;13.30;;;7.60;;
48897;SDS011;34713;50.038;20.000;2023-02-13T17:47:22;10.30;;;7.10;;
48897;SDS011;34713;50.038;20.000;2023-02-13T17:49:50;12.10;;;7.00;;
48897;SDS011;34713;50.038;20.000;2023-02-13T17:52:21;11.80;;;7.80;;